Time;durP1;ratioP1;P1;durP2;ratioP2;P2;SDS_P1;SDS_P2;PMS_P1;PMS_P2;Temp;Humidity;BMP_temperature;BMP_pressure;BME280_temperature;BME280_humidity;BME280_pressure;Samples;Min_cycle;Max_cycle;Signal;HPM_P1;HPM_P2
2021/03/01 00:00:47;;;;;;;;;;;;;;;22.07;38.13;103173.59;3107715;28;115660;-58
2021/03/01 00:02:18;;;;;;;;;;;;;;;22.07;38.04;103163.16;3108260;28;116172;-58
2021/03/01 00:03:49;;;;;;;;;;;;;;;22.07;38.24;103170.78;3107942;28;116377;-58
2021/03/01 00:05:21;;;;;;;;;;;;;;;22.07;38.21;103165.13;3112246;28;115521;-57
2021/03/01 00:06:52;;;;;;;;;;;;;;;22.07;38.55;103165.13;3108359;28;115917;-58
2021/03/01 00:08:23;;;;;;;;;;;;;;;22.07;38.05;103166.00;3103458;28;115787;-58
2021/03/01 00:09:55;;;;;;;;;;;;;;;22.07;38.05;103168.81;3108447;28;115748;-58
2021/03/01 00:11:26;;;;;;;;;;;;;;;22.06;38.48;103158.66;3111905;28;115694;-58
2021/03/01 00:12:57;;;;;;;;;;;;;;;22.07;38.53;103165.13;3108317;28;115799;-59
2021/03/01 00:14:28;;;;;;;;;;;;;;;22.05;38.25;103159.75;3104275;28;114530;-58
2021/03/01 00:16:00;;;;;;;;;;;;;;;22.05;38.29;103159.75;3099053;28;115847;-58
2021/03/01 00:17:31;;;;;;;;;;;;;;;22.05;38.56;103161.72;3110753;28;115949;-58
2021/03/01 00:19:03;;;;;;;;;;;;;;;22.04;38.27;103165.66;3109894;28;114130;-58
2021/03/01 00:20:34;;;;;;;;;;;;;;;22.04;38.37;103162.81;3111039;28;113723;-58
2021/03/01 00:22:05;;;;;;;;;;;;;;;22.04;38.40;103162.81;3112006;28;113873;-58
2021/03/01 00:23:36;;;;;;;;;;;;;;;22.03;38.38;103161.97;3112593;28;113977;-58
2021/03/01 00:25:08;;;;;;;;;;;;;;;22.03;38.31;103155.53;3107502;27;113772;-58
2021/03/01 00:26:39;;;;;;;;;;;;;;;22.02;38.17;103151.00;3105389;28;113782;-59
2021/03/01 00:28:10;;;;;;;;;;;;;;;22.01;38.31;103160.56;3092749;28;114149;-59
2021/03/01 00:29:41;;;;;;;;;;;;;;;21.99;38.35;103146.72;3101552;28;113828;-59
2021/03/01 00:31:12;;;;;;;;;;;;;;;21.99;38.40;103146.72;3100027;28;114025;-58
2021/03/01 00:32:44;;;;;;;;;;;;;;;21.99;38.32;103145.88;3101191;28;113956;-59
2021/03/01 00:34:15;;;;;;;;;;;;;;;21.98;38.36;103147.88;3097546;28;114021;-59
2021/03/01 00:35:46;;;;;;;;;;;;;;;21.97;38.55;103153.75;3111779;27;114025;-58
2021/03/01 00:37:17;;;;;;;;;;;;;;;21.96;38.60;103155.72;3122262;27;113853;-58
2021/03/01 00:38:49;;;;;;;;;;;;;;;21.95;38.79;103147.53;3107795;28;113763;-58
2021/03/01 00:40:20;;;;;;;;;;;;;;;21.94;38.71;103145.84;3124005;27;114169;-58
2021/03/01 00:41:51;;;;;;;;;;;;;;;21.93;39.01;103146.97;3125309;27;115190;-58
2021/03/01 00:43:22;;;;;;;;;;;;;;;21.93;39.51;103155.41;3107771;28;115303;-58
2021/03/01 00:44:53;;;;;;;;;;;;;;;21.91;39.21;103147.19;3106868;28;115401;-59
2021/03/01 00:46:24;;;;;;;;;;;;;;;21.91;39.00;103150.00;3109988;27;114350;-59
2021/03/01 00:47:55;;;;;;;;;;;;;;;21.90;39.01;103153.06;3111380;28;115248;-58
2021/03/01 00:49:27;;;;;;;;;;;;;;;21.90;39.62;103158.69;3120946;27;115160;-59
2021/03/01 00:50:58;;;;;;;;;;;;;;;21.88;39.25;103144.91;3106690;28;115060;-59
2021/03/01 00:52:30;;;;;;;;;;;;;;;21.87;39.58;103147.97;3108871;27;115309;-59
2021/03/01 00:54:02;;;;;;;;;;;;;;;21.87;39.73;103150.78;3115650;27;114572;-59
2021/03/01 00:55:33;;;;;;;;;;;;;;;21.86;39.48;103149.06;3114071;27;115170;-58
2021/03/01 00:57:05;;;;;;;;;;;;;;;21.85;39.76;103148.22;3117579;27;114045;-58
2021/03/01 00:58:36;;;;;;;;;;;;;;;21.84;39.89;103146.56;3124319;27;115274;-59
2021/03/01 01:00:09;;;;;;;;;;;;;;;21.83;39.87;103147.66;3121282;27;115072;-58
2021/03/01 01:01:41;;;;;;;;;;;;;;;21.82;39.96;103140.31;3128557;27;115583;-58
2021/03/01 01:03:13;;;;;;;;;;;;;;;21.82;40.42;103139.47;3111591;28;118091;-58
2021/03/01 01:04:45;;;;;;;;;;;;;;;21.80;40.46;103136.94;3100604;28;115904;-58
2021/03/01 01:06:16;;;;;;;;;;;;;;;21.80;40.22;103141.72;3113207;27;116955;-58
2021/03/01 01:07:47;;;;;;;;;;;;;;;21.78;40.26;103136.34;3113967;27;116545;-58
2021/03/01 01:09:18;;;;;;;;;;;;;;;21.77;40.63;103134.63;3106569;28;115731;-58
2021/03/01 01:10:50;;;;;;;;;;;;;;;21.77;40.61;103136.59;3119652;27;115756;-58
2021/03/01 01:12:21;;;;;;;;;;;;;;;21.75;40.36;103139.69;3098242;28;116565;-60
2021/03/01 01:13:52;;;;;;;;;;;;;;;21.74;40.84;103133.22;3114744;27;115879;-60
2021/03/01 01:15:24;;;;;;;;;;;;;;;21.74;40.35;103135.16;3122469;27;114391;-59
2021/03/01 01:16:55;;;;;;;;;;;;;;;21.72;40.62;103135.41;3109910;28;115156;-59
2021/03/01 01:18:27;;;;;;;;;;;;;;;21.71;40.24;103133.72;3120281;27;115133;-59
2021/03/01 01:19:58;;;;;;;;;;;;;;;21.70;40.32;103136.81;3124872;27;115711;-58
2021/03/01 01:21:29;;;;;;;;;;;;;;;21.69;40.33;103132.28;3123107;27;116795;-59
2021/03/01 01:23:00;;;;;;;;;;;;;;;21.67;40.51;103126.91;3126208;27;115792;-58
2021/03/01 01:24:31;;;;;;;;;;;;;;;21.66;40.54;103130.00;3103796;28;114883;-59
2021/03/01 01:26:02;;;;;;;;;;;;;;;21.65;40.75;103128.31;3101348;28;113955;-58
2021/03/01 01:27:33;;;;;;;;;;;;;;;21.63;40.63;103114.50;3099204;28;113900;-58
2021/03/01 01:29:05;;;;;;;;;;;;;;;21.62;40.46;103124.03;3118842;27;113942;-58
2021/03/01 01:30:36;;;;;;;;;;;;;;;21.61;40.81;103121.50;3112613;27;113790;-58
2021/03/01 01:32:07;;;;;;;;;;;;;;;21.60;40.70;103125.44;3123628;27;113825;-59
2021/03/01 01:33:39;;;;;;;;;;;;;;;21.59;40.75;103127.38;3109870;28;114212;-58
2021/03/01 01:35:13;;;;;;;;;;;;;;;21.56;40.36;103119.47;3100004;28;114575;-58
2021/03/01 01:36:44;;;;;;;;;;;;;;;21.56;40.75;103115.81;3097464;28;114180;-58
2021/03/01 01:38:15;;;;;;;;;;;;;;;21.53;40.58;103114.38;3096196;28;113905;-59
2021/03/01 01:39:46;;;;;;;;;;;;;;;21.52;40.69;103118.31;3112174;27;113824;-58
2021/03/01 01:41:17;;;;;;;;;;;;;;;21.52;40.97;103111.84;3090909;28;114253;-58
2021/03/01 01:42:49;;;;;;;;;;;;;;;21.50;40.86;103116.84;3092499;28;113950;-59
2021/03/01 01:44:20;;;;;;;;;;;;;;;21.47;40.67;103112.63;3112123;27;114107;-59
2021/03/01 01:45:52;;;;;;;;;;;;;;;21.47;40.70;103103.31;3119209;27;115245;-58
2021/03/01 01:47:23;;;;;;;;;;;;;;;21.46;41.01;103102.47;3101913;28;114095;-59
2021/03/01 01:48:54;;;;;;;;;;;;;;;21.44;40.80;103104.69;3117601;27;115422;-59
2021/03/01 01:50:26;;;;;;;;;;;;;;;21.43;41.09;103108.63;3110848;28;116150;-59
2021/03/01 01:51:57;;;;;;;;;;;;;;;21.41;40.95;103096.78;3106452;28;115232;-58
2021/03/01 01:53:29;;;;;;;;;;;;;;;21.41;40.64;103095.94;3106274;28;115194;-59
2021/03/01 01:55:02;;;;;;;;;;;;;;;21.37;41.01;103103.19;3120225;27;115298;-60
2021/03/01 01:56:33;;;;;;;;;;;;;;;21.35;41.06;103092.19;3114651;27;115212;-59
2021/03/01 01:58:04;;;;;;;;;;;;;;;21.34;40.96;103100.91;3110559;28;115280;-59
2021/03/01 01:59:36;;;;;;;;;;;;;;;21.35;40.89;103099.81;3094925;28;115240;-58
2021/03/01 02:01:07;;;;;;;;;;;;;;;21.33;40.99;103097.25;3097649;28;115099;-59
2021/03/01 02:02:38;;;;;;;;;;;;;;;21.29;40.89;103094.13;3117244;27;115084;-59
2021/03/01 02:04:12;;;;;;;;;;;;;;;21.28;40.85;103089.59;3116268;27;115252;-58
2021/03/01 02:05:43;;;;;;;;;;;;;;;21.28;40.79;103085.94;3107174;28;115421;-58
2021/03/01 02:07:18;;;;;;;;;;;;;;;21.27;41.21;103087.03;3119315;27;114790;-58
2021/03/01 02:08:59;;;;;;;;;;;;;;;21.25;41.35;103083.66;3108989;28;115827;-59
2021/03/01 02:10:36;;;;;;;;;;;;;;;21.23;41.02;103085.88;3119000;27;115965;-58
2021/03/01 02:12:10;;;;;;;;;;;;;;;21.22;41.33;103084.16;3103147;28;115728;-58
2021/03/01 02:13:44;;;;;;;;;;;;;;;21.21;41.03;103082.47;3120740;27;116410;-58
2021/03/01 02:15:21;;;;;;;;;;;;;;;21.21;41.10;103082.47;3117702;27;114776;-58
2021/03/01 02:16:52;;;;;;;;;;;;;;;21.18;41.09;103085.78;3107042;28;116416;-59
2021/03/01 02:18:24;;;;;;;;;;;;;;;21.18;41.41;103081.03;3106509;28;115734;-59
2021/03/01 02:19:55;;;;;;;;;;;;;;;21.16;41.36;103074.84;3118843;27;114558;-59
2021/03/01 02:21:30;;;;;;;;;;;;;;;21.16;41.52;103079.59;3119326;27;115731;-58
2021/03/01 02:23:01;;;;;;;;;;;;;;;21.14;41.35;103085.47;3119306;27;114587;-58
2021/03/01 02:24:37;;;;;;;;;;;;;;;21.13;41.58;103088.53;3110649;28;115883;-59
2021/03/01 02:26:11;;;;;;;;;;;;;;;21.12;41.68;103084.00;3108309;28;115731;-58
2021/03/01 02:27:44;;;;;;;;;;;;;;;21.10;41.84;103077.78;3123565;27;115719;-58
2021/03/01 02:29:17;;;;;;;;;;;;;;;21.10;41.77;103080.59;3111460;28;114622;-58
2021/03/01 02:30:52;;;;;;;;;;;;;;;21.07;41.64;103081.97;3105724;28;114094;-58
2021/03/01 02:32:26;;;;;;;;;;;;;;;21.04;41.88;103076.00;3113811;27;114437;-59
2021/03/01 02:33:59;;;;;;;;;;;;;;;21.03;41.77;103077.13;3103244;28;113776;-58
2021/03/01 02:35:32;;;;;;;;;;;;;;;21.01;41.82;103080.19;3110552;27;114129;-58
2021/03/01 02:37:07;;;;;;;;;;;;;;;21.00;41.75;103078.50;3110502;28;114010;-58
2021/03/01 02:38:40;;;;;;;;;;;;;;;20.98;41.93;103077.91;3119041;27;113665;-58
2021/03/01 02:40:12;;;;;;;;;;;;;;;20.96;41.90;103073.66;3121222;27;114017;-58
2021/03/01 02:41:43;;;;;;;;;;;;;;;20.95;42.04;103074.75;3112286;27;113853;-58
2021/03/01 02:43:16;;;;;;;;;;;;;;;20.95;42.01;103071.94;3124423;27;113854;-58
2021/03/01 02:44:48;;;;;;;;;;;;;;;20.91;41.73;103060.38;3112803;27;113661;-58
2021/03/01 02:46:19;;;;;;;;;;;;;;;20.92;41.85;103061.22;3098763;28;113913;-58
2021/03/01 02:47:52;;;;;;;;;;;;;;;20.88;41.64;103065.69;3095183;28;113841;-58
2021/03/01 02:49:24;;;;;;;;;;;;;;;20.88;41.86;103060.91;3115013;27;113772;-58
2021/03/01 02:50:55;;;;;;;;;;;;;;;20.84;41.75;103060.59;3121847;27;113759;-58
2021/03/01 02:52:27;;;;;;;;;;;;;;;20.84;41.74;103062.53;3109438;28;114962;-58
2021/03/01 02:53:59;;;;;;;;;;;;;;;20.83;41.81;103058.88;3109388;28;115365;-59
2021/03/01 02:55:30;;;;;;;;;;;;;;;20.82;42.13;103067.56;3105748;28;115489;-59
2021/03/01 02:57:12;;;;;;;;;;;;;;;20.81;41.95;103057.41;3118474;27;115046;-58
2021/03/01 02:58:44;;;;;;;;;;;;;;;20.82;41.70;103056.31;3123919;27;115140;-58
2021/03/01 03:00:16;;;;;;;;;;;;;;;20.79;41.94;103060.50;3109211;28;115158;-58
2021/03/01 03:01:48;;;;;;;;;;;;;;;20.79;41.78;103057.69;3102788;28;115317;-59
2021/03/01 03:03:20;;;;;;;;;;;;;;;20.79;42.19;103054.03;3103382;28;115083;-59
2021/03/01 03:04:52;;;;;;;;;;;;;;;20.77;42.26;103061.84;3105440;28;115386;-59
2021/03/01 03:06:24;;;;;;;;;;;;;;;20.76;41.99;103057.34;3093760;28;115559;-59
2021/03/01 03:07:56;;;;;;;;;;;;;;;20.75;42.14;103061.28;3114982;27;115263;-59
2021/03/01 03:09:27;;;;;;;;;;;;;;;20.73;42.11;103058.72;3123097;27;114599;-59
2021/03/01 03:11:01;;;;;;;;;;;;;;;20.72;42.12;103045.78;3120721;27;114055;-59
2021/03/01 03:12:32;;;;;;;;;;;;;;;20.73;41.74;103047.47;3120694;27;115592;-59
2021/03/01 03:14:05;;;;;;;;;;;;;;;20.71;41.88;103055.34;3124142;27;115632;-59
2021/03/01 03:15:38;;;;;;;;;;;;;;;20.70;41.79;103041.53;3114919;27;115693;-59
2021/03/01 03:17:11;;;;;;;;;;;;;;;20.68;41.90;103050.22;3121861;27;115913;-58
2021/03/01 03:18:43;;;;;;;;;;;;;;;20.68;41.95;103050.22;3105404;28;115737;-59
2021/03/01 03:20:14;;;;;;;;;;;;;;;20.68;41.99;103047.41;3106046;28;115656;-59
2021/03/01 03:21:45;;;;;;;;;;;;;;;20.66;41.89;103060.03;3116982;27;115694;-59
2021/03/01 03:23:17;;;;;;;;;;;;;;;20.65;41.95;103047.94;3122287;27;115770;-58
2021/03/01 03:24:48;;;;;;;;;;;;;;;20.65;42.10;103049.88;3108931;28;116032;-58
2021/03/01 03:26:19;;;;;;;;;;;;;;;20.61;42.12;103055.19;3116082;27;115779;-58
2021/03/01 03:27:50;;;;;;;;;;;;;;;20.62;42.17;103054.09;3124076;27;115991;-58
2021/03/01 03:29:21;;;;;;;;;;;;;;;20.60;42.06;103058.25;3111199;27;115596;-58
2021/03/01 03:30:52;;;;;;;;;;;;;;;20.60;42.04;103047.84;3120612;27;115817;-58
2021/03/01 03:32:23;;;;;;;;;;;;;;;20.59;42.01;103053.72;3123289;27;115587;-58
2021/03/01 03:33:56;;;;;;;;;;;;;;;20.57;41.95;103047.53;3122135;27;115797;-58
2021/03/01 03:35:27;;;;;;;;;;;;;;;20.58;41.98;103049.22;3122064;27;113932;-59
2021/03/01 03:37:02;;;;;;;;;;;;;;;20.55;41.94;103042.16;3096902;28;114030;-58
2021/03/01 03:38:38;;;;;;;;;;;;;;;20.53;41.96;103040.72;3112685;27;114096;-58
2021/03/01 03:40:11;;;;;;;;;;;;;;;20.53;42.34;103037.91;3111175;27;114011;-58
2021/03/01 03:41:45;;;;;;;;;;;;;;;20.52;42.36;103030.59;3108072;28;113890;-58
2021/03/01 03:43:16;;;;;;;;;;;;;;;20.53;41.97;103037.91;3108620;27;113934;-59
2021/03/01 03:44:50;;;;;;;;;;;;;;;20.51;41.96;103035.34;3123975;27;113758;-58
2021/03/01 03:46:24;;;;;;;;;;;;;;;20.50;42.18;103032.81;3119026;27;113866;-58
2021/03/01 03:47:57;;;;;;;;;;;;;;;20.47;42.24;103031.38;3120048;27;113908;-58
2021/03/01 03:49:30;;;;;;;;;;;;;;;20.45;42.43;103022.34;3099555;28;113937;-58
2021/03/01 03:51:04;;;;;;;;;;;;;;;20.47;42.51;103027.72;3114577;27;114038;-59
2021/03/01 03:52:38;;;;;;;;;;;;;;;20.44;42.42;103023.47;3118272;27;113992;-59
2021/03/01 03:54:13;;;;;;;;;;;;;;;20.44;42.33;103023.47;3102671;28;113880;-58
2021/03/01 03:55:46;;;;;;;;;;;;;;;20.45;42.40;103036.38;3094285;28;113774;-58
2021/03/01 03:57:21;;;;;;;;;;;;;;;20.45;42.45;103027.09;3100377;28;114108;-58
2021/03/01 03:59:02;;;;;;;;;;;;;;;20.42;42.63;103026.53;3111900;27;115210;-59
2021/03/01 04:00:34;;;;;;;;;;;;;;;20.42;42.78;103025.66;3117456;27;116271;-59
2021/03/01 04:02:07;;;;;;;;;;;;;;;20.41;42.62;103030.44;3115371;27;116024;-58
2021/03/01 04:03:40;;;;;;;;;;;;;;;20.41;42.46;103029.56;3108096;28;115133;-59
2021/03/01 04:05:14;;;;;;;;;;;;;;;20.39;42.42;103029.00;3104071;28;114460;-58
2021/03/01 04:06:45;;;;;;;;;;;;;;;20.36;42.37;103023.88;3116369;27;115777;-59
2021/03/01 04:08:16;;;;;;;;;;;;;;;20.38;42.40;103027.28;3123452;27;115185;-58
2021/03/01 04:09:48;;;;;;;;;;;;;;;20.34;42.29;103026.97;3122153;27;115141;-58
2021/03/01 04:11:21;;;;;;;;;;;;;;;20.34;42.54;103026.97;3100605;28;115109;-58
2021/03/01 04:12:53;;;;;;;;;;;;;;;20.35;42.63;103034.25;3108074;27;115044;-59
2021/03/01 04:14:25;;;;;;;;;;;;;;;20.33;42.44;103030.03;3098277;28;115311;-59
2021/03/01 04:15:57;;;;;;;;;;;;;;;20.32;42.25;103025.50;3104228;28;115462;-56
2021/03/01 04:17:28;;;;;;;;;;;;;;;20.32;42.53;103031.97;3101420;28;115426;-58
2021/03/01 04:19:03;;;;;;;;;;;;;;;20.31;42.56;103035.88;3114677;27;115495;-59
2021/03/01 04:20:35;;;;;;;;;;;;;;;20.28;42.52;103027.94;3096508;28;115712;-58
2021/03/01 04:22:08;;;;;;;;;;;;;;;20.29;42.19;103021.22;3109950;27;116173;-59
2021/03/01 04:23:40;;;;;;;;;;;;;;;20.28;42.56;103033.56;3123177;27;116217;-58
2021/03/01 04:25:12;;;;;;;;;;;;;;;20.27;42.44;103028.19;3121799;27;114804;-59
2021/03/01 04:26:45;;;;;;;;;;;;;;;20.27;42.63;103026.25;3121588;27;115853;-58
2021/03/01 04:28:17;;;;;;;;;;;;;;;20.25;42.51;103027.63;3113405;27;115849;-58
2021/03/01 04:29:49;;;;;;;;;;;;;;;20.24;42.55;103023.09;3114033;27;115831;-58
2021/03/01 04:31:21;;;;;;;;;;;;;;;20.22;42.42;103023.34;3119124;27;115826;-58
2021/03/01 04:32:52;;;;;;;;;;;;;;;20.22;42.39;103028.97;3122437;27;115782;-58
2021/03/01 04:34:24;;;;;;;;;;;;;;;20.22;42.46;103022.50;3109891;28;115941;-59
2021/03/01 04:35:56;;;;;;;;;;;;;;;20.20;42.62;103021.91;3112564;27;116238;-59
2021/03/01 04:37:27;;;;;;;;;;;;;;;20.21;42.50;103018.00;3102751;28;115746;-58
2021/03/01 04:38:58;;;;;;;;;;;;;;;20.21;42.49;103016.06;3115833;27;115440;-58
2021/03/01 04:40:29;;;;;;;;;;;;;;;20.18;42.52;103019.34;3108419;28;115867;-58
2021/03/01 04:42:00;;;;;;;;;;;;;;;20.16;42.55;103021.59;3119988;27;113902;-58
2021/03/01 04:43:33;;;;;;;;;;;;;;;20.17;42.25;103016.81;3123400;27;113761;-58
2021/03/01 04:45:04;;;;;;;;;;;;;;;20.17;42.30;103022.44;3123194;27;113795;-59
2021/03/01 04:46:36;;;;;;;;;;;;;;;20.16;42.43;103017.91;3124786;27;114047;-58
2021/03/01 04:48:09;;;;;;;;;;;;;;;20.16;42.35;103015.13;3110098;28;114049;-58
2021/03/01 04:49:40;;;;;;;;;;;;;;;20.15;42.23;103013.41;3120481;27;113857;-58
2021/03/01 04:51:12;;;;;;;;;;;;;;;20.13;42.32;103012.81;3105155;28;114574;-58
2021/03/01 04:52:44;;;;;;;;;;;;;;;20.11;42.46;103009.41;3116068;27;113901;-59
2021/03/01 04:54:16;;;;;;;;;;;;;;;20.10;42.51;103011.38;3125104;27;113623;-59
2021/03/01 04:55:47;;;;;;;;;;;;;;;20.08;42.40;103007.94;3124839;27;113766;-58
2021/03/01 04:57:19;;;;;;;;;;;;;;;20.08;42.35;103007.94;3105348;28;113915;-58
2021/03/01 04:58:51;;;;;;;;;;;;;;;20.07;42.39;103011.03;3120742;27;114057;-58
2021/03/01 05:00:22;;;;;;;;;;;;;;;20.06;42.47;103013.00;3115838;27;113997;-58
2021/03/01 05:01:53;;;;;;;;;;;;;;;20.08;42.46;103010.75;3119770;27;114407;-58
2021/03/01 05:03:25;;;;;;;;;;;;;;;20.06;42.25;103017.75;3122085;27;115067;-58
2021/03/01 05:04:57;;;;;;;;;;;;;;;20.05;42.46;103016.88;3119061;27;115461;-58
2021/03/01 05:06:29;;;;;;;;;;;;;;;20.06;42.47;103014.94;3122467;27;115428;-58
2021/03/01 05:08:02;;;;;;;;;;;;;;;20.04;42.49;103009.56;3120868;27;115102;-58
2021/03/01 05:09:35;;;;;;;;;;;;;;;20.02;42.28;103002.53;3109646;28;115156;-58
2021/03/01 05:11:07;;;;;;;;;;;;;;;20.02;42.41;103003.38;3119923;27;115454;-58
2021/03/01 05:12:38;;;;;;;;;;;;;;;20.01;42.36;103010.09;3110587;28;115093;-58
2021/03/01 05:14:09;;;;;;;;;;;;;;;20.00;42.45;103011.19;3099063;28;114930;-59
2021/03/01 05:15:40;;;;;;;;;;;;;;;20.02;42.33;103019.38;3120304;27;115574;-59
2021/03/01 05:17:13;;;;;;;;;;;;;;;19.99;42.42;103015.94;3121016;27;114987;-59
2021/03/01 05:18:44;;;;;;;;;;;;;;;19.98;42.49;103007.81;3114428;27;114318;-58
2021/03/01 05:20:15;;;;;;;;;;;;;;;19.98;42.47;103013.41;3124810;27;115708;-57
2021/03/01 05:21:46;;;;;;;;;;;;;;;19.95;42.65;103017.56;3124342;27;115496;-58
2021/03/01 05:23:17;;;;;;;;;;;;;;;19.96;42.67;103016.47;3113916;28;115147;-58
2021/03/01 05:24:48;;;;;;;;;;;;;;;19.95;42.50;103020.38;3113519;27;115773;-58
2021/03/01 05:26:20;;;;;;;;;;;;;;;19.93;42.88;103014.19;3115118;27;115819;-58
2021/03/01 05:27:51;;;;;;;;;;;;;;;19.92;42.68;103018.09;3114634;27;115729;-58
2021/03/01 05:29:22;;;;;;;;;;;;;;;19.92;42.75;103017.22;3123959;27;115089;-57
2021/03/01 05:30:53;;;;;;;;;;;;;;;19.91;42.69;103009.91;3124629;27;116314;-58
2021/03/01 05:32:25;;;;;;;;;;;;;;;19.90;42.55;103013.81;3101195;28;115777;-58
2021/03/01 05:33:56;;;;;;;;;;;;;;;19.89;42.62;103015.78;3115394;27;115595;-58
2021/03/01 05:35:27;;;;;;;;;;;;;;;19.88;42.80;103019.69;3122253;27;115864;-58
2021/03/01 05:36:59;;;;;;;;;;;;;;;19.88;42.86;103019.69;3103871;28;116071;-59
2021/03/01 05:38:30;;;;;;;;;;;;;;;19.88;42.60;103021.66;3106766;28;115777;-59
2021/03/01 05:40:02;;;;;;;;;;;;;;;19.88;42.57;103028.13;3111046;28;116423;-59
2021/03/01 05:41:33;;;;;;;;;;;;;;;19.86;42.81;103016.28;3102461;27;116254;-58
2021/03/01 05:43:06;;;;;;;;;;;;;;;19.86;42.66;103024.69;3100164;28;116176;-58
2021/03/01 05:44:37;;;;;;;;;;;;;;;19.86;42.65;103016.28;3102506;28;115405;-58
2021/03/01 05:46:08;;;;;;;;;;;;;;;19.89;42.79;103012.13;3113085;28;115925;-58
2021/03/01 05:47:40;;;;;;;;;;;;;;;19.91;43.29;103010.75;3103669;28;113853;-58
2021/03/01 05:49:12;;;;;;;;;;;;;;;19.95;43.03;103008.28;3104210;28;113646;-58
2021/03/01 05:50:44;;;;;;;;;;;;;;;20.00;43.00;103014.00;3106150;28;113806;-58
2021/03/01 05:52:17;;;;;;;;;;;;;;;20.02;42.90;103013.75;3110645;28;113989;-58
2021/03/01 05:53:50;;;;;;;;;;;;;;;20.04;42.71;103014.34;3109046;28;113767;-58
2021/03/01 05:55:22;;;;;;;;;;;;;;;20.07;42.66;103013.84;3099947;28;113789;-58
2021/03/01 05:56:53;;;;;;;;;;;;;;;20.08;42.65;103015.56;3110416;28;114117;-57
2021/03/01 05:58:26;;;;;;;;;;;;;;;20.11;42.56;103018.69;3110525;28;113925;-58
2021/03/01 05:59:57;;;;;;;;;;;;;;;20.16;42.79;103015.13;3102536;27;113762;-58
2021/03/01 06:01:29;;;;;;;;;;;;;;;20.19;43.53;103011.78;3107697;28;113710;-58
2021/03/01 06:03:01;;;;;;;;;;;;;;;20.22;43.34;103008.47;3110688;28;118094;-58
2021/03/01 06:04:32;;;;;;;;;;;;;;;20.27;43.46;103005.75;3101797;28;114061;-58
2021/03/01 06:06:04;;;;;;;;;;;;;;;20.31;43.49;103010.63;3105303;28;113807;-58
2021/03/01 06:07:35;;;;;;;;;;;;;;;20.36;42.81;103013.50;3113045;27;114054;-58
2021/03/01 06:09:06;;;;;;;;;;;;;;;20.42;43.39;103011.63;3104120;28;115118;-58
2021/03/01 06:10:38;;;;;;;;;;;;;;;20.49;43.26;103003.03;3110505;27;115188;-59
2021/03/01 06:12:10;;;;;;;;;;;;;;;20.52;43.28;103010.94;3109429;28;114074;-58
2021/03/01 06:13:41;;;;;;;;;;;;;;;20.55;42.86;103005.66;3109882;28;115733;-59
2021/03/01 06:15:12;;;;;;;;;;;;;;;20.59;42.94;103004.03;3111646;27;115466;-59
2021/03/01 06:16:53;;;;;;;;;;;;;;;20.64;42.88;103008.84;3111109;27;115132;-58
2021/03/01 06:18:25;;;;;;;;;;;;;;;20.69;42.73;103003.31;3110817;27;113953;-59
2021/03/01 06:19:57;;;;;;;;;;;;;;;20.73;42.62;102998.88;3103610;28;115529;-58
2021/03/01 06:21:28;;;;;;;;;;;;;;;20.77;42.61;102989.66;3105339;28;114073;-58
2021/03/01 06:23:00;;;;;;;;;;;;;;;20.80;42.44;102994.75;3107610;28;115522;-58
2021/03/01 06:24:31;;;;;;;;;;;;;;;20.85;42.36;102991.16;3111142;28;114604;-59
2021/03/01 06:26:12;;;;;;;;;;;;;;;20.90;42.33;103004.44;3110484;28;114903;-58
2021/03/01 06:27:44;;;;;;;;;;;;;;;20.95;42.06;102991.31;3110588;27;115069;-59
2021/03/01 06:29:15;;;;;;;;;;;;;;;20.99;41.99;103000.06;3115419;28;115502;-58
2021/03/01 06:30:46;;;;;;;;;;;;;;;21.03;42.16;103002.06;3111452;28;116816;-58
2021/03/01 06:32:17;;;;;;;;;;;;;;;21.07;41.93;102999.63;3100634;28;114663;-59
2021/03/01 06:33:49;;;;;;;;;;;;;;;21.10;41.62;102994.31;3108985;28;115837;-58
2021/03/01 06:35:28;;;;;;;;;;;;;;;21.14;42.17;102998.31;3110891;27;115650;-58
2021/03/01 06:37:00;;;;;;;;;;;;;;;21.18;41.67;102995.84;3109297;28;115763;-59
2021/03/01 06:38:34;;;;;;;;;;;;;;;21.22;41.67;103005.44;3109428;28;116187;-59
2021/03/01 06:40:06;;;;;;;;;;;;;;;21.26;41.67;103000.97;3100456;28;115851;-58
2021/03/01 06:41:37;;;;;;;;;;;;;;;21.30;41.64;103002.19;3101183;28;115828;-58
2021/03/01 06:43:09;;;;;;;;;;;;;;;21.34;41.19;103013.75;3102843;28;115835;-59
2021/03/01 06:44:40;;;;;;;;;;;;;;;21.37;41.42;103000.00;3110902;28;116546;-58
2021/03/01 06:46:12;;;;;;;;;;;;;;;21.41;41.43;102997.50;3106501;28;115874;-58
2021/03/01 06:47:47;;;;;;;;;;;;;;;21.43;41.31;103010.19;3107424;28;116122;-58
2021/03/01 06:49:19;;;;;;;;;;;;;;;21.48;41.17;103007.44;3106870;28;115781;-58
2021/03/01 06:50:53;;;;;;;;;;;;;;;21.50;40.90;103004.34;3109710;28;116126;-59
2021/03/01 06:52:40;;;;;;;;;;;;;;;21.55;40.90;103007.22;3106296;28;113924;-58
2021/03/01 06:54:11;;;;;;;;;;;;;;;21.58;40.73;103018.78;3108252;28;114117;-59
2021/03/01 06:55:52;;;;;;;;;;;;;;;21.61;40.73;103015.47;3104042;28;114281;-57
2021/03/01 06:57:26;;;;;;;;;;;;;;;21.66;40.62;103009.03;3105438;28;114069;-58
2021/03/01 06:59:08;;;;;;;;;;;;;;;21.69;40.58;103014.13;3110015;28;114339;-58
2021/03/01 07:00:39;;;;;;;;;;;;;;;21.71;40.42;103015.53;3105561;28;113910;-58
2021/03/01 07:02:13;;;;;;;;;;;;;;;21.75;40.47;103013.06;3102902;28;113805;-58
2021/03/01 07:03:49;;;;;;;;;;;;;;;21.78;40.35;103011.66;3106498;28;113998;-58
2021/03/01 07:05:22;;;;;;;;;;;;;;;21.81;40.53;103016.75;3105279;28;114000;-58
2021/03/01 07:06:55;;;;;;;;;;;;;;;21.84;40.30;103017.09;3106786;28;114206;-59
2021/03/01 07:08:31;;;;;;;;;;;;;;;21.87;40.54;103015.69;3102519;28;113936;-58
2021/03/01 07:10:05;;;;;;;;;;;;;;;21.91;40.56;103020.53;3106062;28;113720;-58
2021/03/01 07:11:42;;;;;;;;;;;;;;;21.93;40.15;103023.97;3104565;28;114012;-58
2021/03/01 07:13:25;;;;;;;;;;;;;;;21.97;40.23;103024.28;3108391;28;113783;-59
2021/03/01 07:14:57;;;;;;;;;;;;;;;21.99;40.44;103025.69;3109983;28;113960;-59
2021/03/01 07:16:35;;;;;;;;;;;;;;;22.02;40.17;103028.00;3098458;28;114034;-59
2021/03/01 07:18:08;;;;;;;;;;;;;;;22.05;40.29;103012.50;3103309;28;114653;-58
2021/03/01 07:19:42;;;;;;;;;;;;;;;22.07;40.13;103016.78;3101957;28;115742;-59
2021/03/01 07:21:15;;;;;;;;;;;;;;;22.10;40.28;103015.38;3102754;28;114192;-59
2021/03/01 07:22:47;;;;;;;;;;;;;;;22.13;40.27;103014.81;3103853;28;113935;-58
2021/03/01 07:24:20;;;;;;;;;;;;;;;22.16;40.12;103017.13;3111455;27;114023;-58
2021/03/01 07:25:53;;;;;;;;;;;;;;;22.18;40.01;103012.06;3109508;28;116027;-58
2021/03/01 07:27:27;;;;;;;;;;;;;;;22.20;39.96;103012.66;3094892;28;116950;-58
2021/03/01 07:29:09;;;;;;;;;;;;;;;22.23;40.02;103023.38;3101897;28;114968;-58
2021/03/01 07:30:43;;;;;;;;;;;;;;;22.25;39.95;103009.88;3110526;28;116270;-59
2021/03/01 07:32:18;;;;;;;;;;;;;;;22.31;40.68;103022.84;3103087;28;114604;-58
2021/03/01 07:33:51;;;;;;;;;;;;;;;22.34;40.07;103019.53;3105797;28;115897;-58
2021/03/01 07:35:23;;;;;;;;;;;;;;;22.38;39.74;103014.19;3108653;28;115181;-58
2021/03/01 07:37:11;;;;;;;;;;;;;;;22.40;39.79;103006.28;3112737;28;115013;-57
2021/03/01 07:38:46;;;;;;;;;;;;;;;22.41;39.57;103008.00;3103711;28;115871;-58
2021/03/01 07:40:18;;;;;;;;;;;;;;;22.44;39.51;103008.28;3102309;28;114317;-58
2021/03/01 07:41:51;;;;;;;;;;;;;;;22.44;39.38;103011.13;3107743;28;114622;-58
2021/03/01 07:43:24;;;;;;;;;;;;;;;22.44;39.38;103005.47;3109219;28;114440;-58
2021/03/01 07:44:56;;;;;;;;;;;;;;;22.43;39.22;103008.59;3110970;28;114515;-57
2021/03/01 07:46:29;;;;;;;;;;;;;;;22.41;38.96;103010.81;3109446;28;114941;-58
2021/03/01 07:48:11;;;;;;;;;;;;;;;22.39;38.65;103008.28;3099483;28;115922;-58
2021/03/01 07:49:44;;;;;;;;;;;;;;;22.38;38.43;103011.38;3103197;28;115568;-58